sensor_id;sensor_type;location;lat;lon;timestamp;P1;durP1;ratioP1;P2;durP2;ratioP2
17812;SDS011;9030;50.792;8.320;2023-04-16T00:00:37;12.50;;;9.20;;
17812;SDS011;9030;50.792;8.320;2023-04-16T00:03:03;12.30;;;7.70;;
17812;SDS011;9030;50.792;8.320;2023-04-16T00:05:31;12.37;;;9.60;;
17812;SDS011;9030;50.792;8.320;2023-04-16T00:07:58;14.87;;;7.97;;
17812;SDS011;9030;50.792;8.320;2023-04-16T00:10:24;12.23;;;6.40;;
17812;SDS011;9030;50.792;8.320;2023-04-16T00:12:51;11.50;;;6.60;;
17812;SDS011;9030;50.792;8.320;2023-04-16T00:17:51;10.00;;;6.20;;
17812;SDS011;9030;50.792;8.320;2023-04-16T00:20:18;9.50;;;5.70;;
17812;SDS011;9030;50.792;8.320;2023-04-16T00:22:45;10.43;;;6.77;;
17812;SDS011;9030;50.792;8.320;2023-04-16T00:25:12;11.33;;;6.80;;
17812;SDS011;9030;50.792;8.320;2023-04-16T00:27:39;13.23;;;8.33;;
17812;SDS011;9030;50.792;8.320;2023-04-16T00:30:06;11.57;;;7.40;;
17812;SDS011;9030;50.792;8.320;2023-04-16T00:32:35;12.43;;;7.63;;
17812;SDS011;9030;50.792;8.320;2023-04-16T00:35:01;13.27;;;7.67;;
17812;SDS011;9030;50.792;8.320;2023-04-16T00:37:29;12.43;;;7.80;;
17812;SDS011;9030;50.792;8.320;2023-04-16T00:39:55;11.83;;;8.50;;
17812;SDS011;9030;50.792;8.320;2023-04-16T00:42:22;13.87;;;8.50;;
17812;SDS011;9030;50.792;8.320;2023-04-16T00:44:49;13.90;;;9.73;;
17812;SDS011;9030;50.792;8.320;2023-04-16T00:47:16;15.43;;;10.03;;
17812;SDS011;9030;50.792;8.320;2023-04-16T00:49:45;13.80;;;9.07;;
17812;SDS011;9030;50.792;8.320;2023-04-16T00:52:12;15.27;;;11.63;;
17812;SDS011;9030;50.792;8.320;2023-04-16T00:54:39;16.67;;;12.40;;
17812;SDS011;9030;50.792;8.320;2023-04-16T00:57:07;18.00;;;13.73;;
17812;SDS011;9030;50.792;8.320;2023-04-16T00:59:35;15.87;;;12.80;;
17812;SDS011;9030;50.792;8.320;2023-04-16T01:02:01;15.87;;;12.40;;
17812;SDS011;9030;50.792;8.320;2023-04-16T01:04:28;16.13;;;12.83;;
17812;SDS011;9030;50.792;8.320;2023-04-16T01:06:56;18.90;;;14.83;;
17812;SDS011;9030;50.792;8.320;2023-04-16T01:09:23;18.30;;;14.27;;
17812;SDS011;9030;50.792;8.320;2023-04-16T01:11:50;18.90;;;16.00;;
17812;SDS011;9030;50.792;8.320;2023-04-16T01:14:16;18.00;;;15.47;;
17812;SDS011;9030;50.792;8.320;2023-04-16T01:16:43;18.60;;;15.93;;
17812;SDS011;9030;50.792;8.320;2023-04-16T01:19:10;19.40;;;17.20;;
17812;SDS011;9030;50.792;8.320;2023-04-16T01:21:38;18.83;;;15.60;;
17812;SDS011;9030;50.792;8.320;2023-04-16T01:24:05;18.67;;;16.67;;
17812;SDS011;9030;50.792;8.320;2023-04-16T01:26:32;19.93;;;17.07;;
17812;SDS011;9030;50.792;8.320;2023-04-16T01:28:58;18.63;;;16.73;;
17812;SDS011;9030;50.792;8.320;2023-04-16T01:31:35;20.17;;;17.97;;
17812;SDS011;9030;50.792;8.320;2023-04-16T01:34:02;19.33;;;17.17;;
17812;SDS011;9030;50.792;8.320;2023-04-16T01:36:29;21.07;;;18.27;;
17812;SDS011;9030;50.792;8.320;2023-04-16T01:41:40;20.10;;;17.90;;
17812;SDS011;9030;50.792;8.320;2023-04-16T01:44:07;20.53;;;18.33;;
17812;SDS011;9030;50.792;8.320;2023-04-16T01:46:33;20.70;;;17.87;;
17812;SDS011;9030;50.792;8.320;2023-04-16T01:49:01;20.93;;;18.23;;
17812;SDS011;9030;50.792;8.320;2023-04-16T01:51:27;20.03;;;17.93;;
17812;SDS011;9030;50.792;8.320;2023-04-16T01:53:56;18.17;;;15.50;;
17812;SDS011;9030;50.792;8.320;2023-04-16T01:56:24;19.83;;;17.77;;
17812;SDS011;9030;50.792;8.320;2023-04-16T01:58:51;20.97;;;18.77;;
17812;SDS011;9030;50.792;8.320;2023-04-16T02:01:17;20.93;;;17.23;;
17812;SDS011;9030;50.792;8.320;2023-04-16T02:03:44;20.27;;;18.13;;
17812;SDS011;9030;50.792;8.320;2023-04-16T02:08:42;20.77;;;18.57;;
17812;SDS011;9030;50.792;8.320;2023-04-16T02:11:09;20.80;;;18.57;;
17812;SDS011;9030;50.792;8.320;2023-04-16T02:13:37;22.40;;;20.17;;
17812;SDS011;9030;50.792;8.320;2023-04-16T02:16:04;24.67;;;21.63;;
17812;SDS011;9030;50.792;8.320;2023-04-16T02:18:31;24.23;;;17.30;;
17812;SDS011;9030;50.792;8.320;2023-04-16T02:20:57;21.63;;;18.77;;
17812;SDS011;9030;50.792;8.320;2023-04-16T02:23:24;22.13;;;19.67;;
17812;SDS011;9030;50.792;8.320;2023-04-16T02:25:51;22.67;;;20.37;;
17812;SDS011;9030;50.792;8.320;2023-04-16T02:28:18;22.37;;;18.50;;
17812;SDS011;9030;50.792;8.320;2023-04-16T02:30:46;19.37;;;17.00;;
17812;SDS011;9030;50.792;8.320;2023-04-16T02:33:13;22.63;;;18.73;;
17812;SDS011;9030;50.792;8.320;2023-04-16T02:35:40;21.63;;;19.47;;
17812;SDS011;9030;50.792;8.320;2023-04-16T02:38:06;18.47;;;16.57;;
17812;SDS011;9030;50.792;8.320;2023-04-16T02:40:33;20.40;;;18.27;;
17812;SDS011;9030;50.792;8.320;2023-04-16T02:43:03;18.70;;;16.77;;
17812;SDS011;9030;50.792;8.320;2023-04-16T02:45:30;18.70;;;16.70;;
17812;SDS011;9030;50.792;8.320;2023-04-16T02:47:58;18.57;;;14.67;;
17812;SDS011;9030;50.792;8.320;2023-04-16T02:50:25;17.70;;;15.30;;
17812;SDS011;9030;50.792;8.320;2023-04-16T02:52:52;17.03;;;14.57;;
17812;SDS011;9030;50.792;8.320;2023-04-16T02:55:19;17.47;;;14.23;;
17812;SDS011;9030;50.792;8.320;2023-04-16T02:57:45;15.73;;;12.90;;
17812;SDS011;9030;50.792;8.320;2023-04-16T03:00:12;16.07;;;13.63;;
17812;SDS011;9030;50.792;8.320;2023-04-16T03:02:39;16.60;;;14.03;;
17812;SDS011;9030;50.792;8.320;2023-04-16T03:05:08;18.30;;;14.30;;
17812;SDS011;9030;50.792;8.320;2023-04-16T03:07:35;16.07;;;13.83;;
17812;SDS011;9030;50.792;8.320;2023-04-16T03:10:03;16.77;;;14.57;;
17812;SDS011;9030;50.792;8.320;2023-04-16T03:12:32;15.27;;;12.40;;
17812;SDS011;9030;50.792;8.320;2023-04-16T03:14:58;15.47;;;12.97;;
17812;SDS011;9030;50.792;8.320;2023-04-16T03:17:25;16.43;;;14.30;;
17812;SDS011;9030;50.792;8.320;2023-04-16T03:19:52;16.53;;;12.77;;
17812;SDS011;9030;50.792;8.320;2023-04-16T03:22:20;17.57;;;14.23;;
17812;SDS011;9030;50.792;8.320;2023-04-16T03:24:47;17.13;;;15.07;;
17812;SDS011;9030;50.792;8.320;2023-04-16T03:27:13;15.53;;;12.90;;
17812;SDS011;9030;50.792;8.320;2023-04-16T03:29:40;17.03;;;15.00;;
17812;SDS011;9030;50.792;8.320;2023-04-16T03:32:07;18.27;;;16.33;;
17812;SDS011;9030;50.792;8.320;2023-04-16T03:34:36;19.27;;;16.30;;
17812;SDS011;9030;50.792;8.320;2023-04-16T03:39:50;19.37;;;17.20;;
17812;SDS011;9030;50.792;8.320;2023-04-16T03:42:17;21.10;;;18.17;;
17812;SDS011;9030;50.792;8.320;2023-04-16T03:44:43;19.33;;;17.33;;
17812;SDS011;9030;50.792;8.320;2023-04-16T03:47:10;24.43;;;18.97;;
17812;SDS011;9030;50.792;8.320;2023-04-16T03:49:37;21.07;;;18.87;;
17812;SDS011;9030;50.792;8.320;2023-04-16T03:52:04;19.77;;;17.67;;
17812;SDS011;9030;50.792;8.320;2023-04-16T03:54:32;18.97;;;16.60;;
17812;SDS011;9030;50.792;8.320;2023-04-16T03:56:58;17.77;;;15.87;;
17812;SDS011;9030;50.792;8.320;2023-04-16T03:59:25;21.03;;;18.33;;
17812;SDS011;9030;50.792;8.320;2023-04-16T04:01:52;18.70;;;16.80;;
17812;SDS011;9030;50.792;8.320;2023-04-16T04:04:18;18.53;;;16.63;;
17812;SDS011;9030;50.792;8.320;2023-04-16T04:06:45;21.87;;;16.43;;
17812;SDS011;9030;50.792;8.320;2023-04-16T04:09:12;19.50;;;16.37;;
17812;SDS011;9030;50.792;8.320;2023-04-16T04:11:41;19.00;;;16.97;;
17812;SDS011;9030;50.792;8.320;2023-04-16T04:14:08;18.63;;;15.80;;
17812;SDS011;9030;50.792;8.320;2023-04-16T04:16:35;19.90;;;17.10;;
17812;SDS011;9030;50.792;8.320;2023-04-16T04:19:01;19.50;;;15.90;;
17812;SDS011;9030;50.792;8.320;2023-04-16T04:21:28;18.77;;;16.40;;
17812;SDS011;9030;50.792;8.320;2023-04-16T04:23:55;20.67;;;16.57;;
17812;SDS011;9030;50.792;8.320;2023-04-16T04:26:22;16.43;;;13.73;;
17812;SDS011;9030;50.792;8.320;2023-04-16T04:28:50;18.70;;;15.53;;
17812;SDS011;9030;50.792;8.320;2023-04-16T04:31:17;17.67;;;15.60;;
17812;SDS011;9030;50.792;8.320;2023-04-16T04:33:43;17.10;;;14.13;;
17812;SDS011;9030;50.792;8.320;2023-04-16T04:36:10;18.93;;;15.23;;
17812;SDS011;9030;50.792;8.320;2023-04-16T04:38:38;17.73;;;14.77;;
17812;SDS011;9030;50.792;8.320;2023-04-16T04:41:05;18.60;;;15.23;;
17812;SDS011;9030;50.792;8.320;2023-04-16T04:43:31;16.83;;;13.17;;
17812;SDS011;9030;50.792;8.320;2023-04-16T04:45:59;17.33;;;13.73;;
17812;SDS011;9030;50.792;8.320;2023-04-16T04:48:26;17.07;;;14.33;;
17812;SDS011;9030;50.792;8.320;2023-04-16T04:50:53;17.77;;;14.43;;
17812;SDS011;9030;50.792;8.320;2023-04-16T04:53:20;16.10;;;13.57;;
17812;SDS011;9030;50.792;8.320;2023-04-16T04:55:46;17.90;;;14.10;;
17812;SDS011;9030;50.792;8.320;2023-04-16T04:58:13;16.90;;;13.93;;
17812;SDS011;9030;50.792;8.320;2023-04-16T05:00:40;16.37;;;14.00;;
17812;SDS011;9030;50.792;8.320;2023-04-16T05:03:09;18.83;;;14.83;;
17812;SDS011;9030;50.792;8.320;2023-04-16T05:05:37;19.43;;;14.50;;
17812;SDS011;9030;50.792;8.320;2023-04-16T05:08:04;18.37;;;16.47;;
17812;SDS011;9030;50.792;8.320;2023-04-16T05:10:30;19.23;;;16.43;;
17812;SDS011;9030;50.792;8.320;2023-04-16T05:12:57;21.97;;;18.50;;
17812;SDS011;9030;50.792;8.320;2023-04-16T05:15:24;20.03;;;17.47;;
17812;SDS011;9030;50.792;8.320;2023-04-16T05:17:51;22.70;;;19.03;;
17812;SDS011;9030;50.792;8.320;2023-04-16T05:20:21;23.77;;;21.13;;
17812;SDS011;9030;50.792;8.320;2023-04-16T05:22:48;22.73;;;20.23;;
17812;SDS011;9030;50.792;8.320;2023-04-16T05:25:15;22.80;;;20.47;;
17812;SDS011;9030;50.792;8.320;2023-04-16T05:27:42;27.30;;;21.73;;
17812;SDS011;9030;50.792;8.320;2023-04-16T05:30:09;24.63;;;20.93;;
17812;SDS011;9030;50.792;8.320;2023-04-16T05:32:37;23.43;;;20.67;;
17812;SDS011;9030;50.792;8.320;2023-04-16T05:35:06;21.77;;;19.27;;
17812;SDS011;9030;50.792;8.320;2023-04-16T05:37:35;22.83;;;20.37;;
17812;SDS011;9030;50.792;8.320;2023-04-16T05:40:01;21.97;;;19.07;;
17812;SDS011;9030;50.792;8.320;2023-04-16T05:42:28;23.50;;;21.13;;
17812;SDS011;9030;50.792;8.320;2023-04-16T05:44:55;24.20;;;21.30;;
17812;SDS011;9030;50.792;8.320;2023-04-16T05:47:22;22.23;;;19.83;;
17812;SDS011;9030;50.792;8.320;2023-04-16T05:49:49;24.23;;;21.07;;
17812;SDS011;9030;50.792;8.320;2023-04-16T05:52:15;24.90;;;20.93;;
17812;SDS011;9030;50.792;8.320;2023-04-16T05:54:43;25.43;;;22.73;;
17812;SDS011;9030;50.792;8.320;2023-04-16T05:57:11;25.57;;;22.93;;
17812;SDS011;9030;50.792;8.320;2023-04-16T05:59:38;26.83;;;23.33;;
17812;SDS011;9030;50.792;8.320;2023-04-16T06:02:05;27.37;;;23.10;;
17812;SDS011;9030;50.792;8.320;2023-04-16T06:04:32;26.37;;;23.63;;
17812;SDS011;9030;50.792;8.320;2023-04-16T06:06:59;26.67;;;22.43;;
17812;SDS011;9030;50.792;8.320;2023-04-16T06:09:37;25.47;;;22.77;;
17812;SDS011;9030;50.792;8.320;2023-04-16T06:12:06;25.37;;;22.67;;
17812;SDS011;9030;50.792;8.320;2023-04-16T06:14:32;25.73;;;22.73;;
17812;SDS011;9030;50.792;8.320;2023-04-16T06:16:59;25.63;;;22.93;;
17812;SDS011;9030;50.792;8.320;2023-04-16T06:19:28;24.67;;;22.07;;
17812;SDS011;9030;50.792;8.320;2023-04-16T06:21:55;25.37;;;22.70;;
17812;SDS011;9030;50.792;8.320;2023-04-16T06:24:22;24.13;;;21.53;;
17812;SDS011;9030;50.792;8.320;2023-04-16T06:26:48;25.00;;;22.40;;
17812;SDS011;9030;50.792;8.320;2023-04-16T06:29:17;26.93;;;24.13;;
17812;SDS011;9030;50.792;8.320;2023-04-16T06:31:43;26.43;;;23.73;;
17812;SDS011;9030;50.792;8.320;2023-04-16T06:34:10;27.80;;;24.80;;
17812;SDS011;9030;50.792;8.320;2023-04-16T06:36:37;28.90;;;25.87;;
17812;SDS011;9030;50.792;8.320;2023-04-16T06:39:04;29.67;;;26.63;;
17812;SDS011;9030;50.792;8.320;2023-04-16T06:41:30;29.63;;;26.63;;
17812;SDS011;9030;50.792;8.320;2023-04-16T06:43:57;28.17;;;25.40;;
17812;SDS011;9030;50.792;8.320;2023-04-16T06:46:25;29.87;;;26.57;;
17812;SDS011;9030;50.792;8.320;2023-04-16T06:48:52;29.83;;;26.70;;
17812;SDS011;9030;50.792;8.320;2023-04-16T06:51:19;31.87;;;28.60;;
17812;SDS011;9030;50.792;8.320;2023-04-16T06:54:00;28.63;;;25.53;;
17812;SDS011;9030;50.792;8.320;2023-04-16T06:59:03;27.47;;;24.67;;
17812;SDS011;9030;50.792;8.320;2023-04-16T07:01:31;28.17;;;25.33;;
17812;SDS011;9030;50.792;8.320;2023-04-16T07:03:58;28.30;;;25.37;;
17812;SDS011;9030;50.792;8.320;2023-04-16T07:06:25;26.67;;;23.93;;
17812;SDS011;9030;50.792;8.320;2023-04-16T07:08:52;26.83;;;23.97;;
17812;SDS011;9030;50.792;8.320;2023-04-16T07:11:18;27.73;;;25.00;;
17812;SDS011;9030;50.792;8.320;2023-04-16T07:13:46;25.67;;;23.03;;
17812;SDS011;9030;50.792;8.320;2023-04-16T07:16:31;26.07;;;23.20;;
17812;SDS011;9030;50.792;8.320;2023-04-16T07:18:58;25.90;;;23.13;;
17812;SDS011;9030;50.792;8.320;2023-04-16T07:21:24;27.63;;;24.17;;
17812;SDS011;9030;50.792;8.320;2023-04-16T07:23:53;26.40;;;23.47;;
17812;SDS011;9030;50.792;8.320;2023-04-16T07:26:20;26.60;;;23.90;;
17812;SDS011;9030;50.792;8.320;2023-04-16T07:28:47;25.13;;;22.50;;
17812;SDS011;9030;50.792;8.320;2023-04-16T07:31:26;26.37;;;23.87;;
17812;SDS011;9030;50.792;8.320;2023-04-16T07:33:55;25.17;;;22.50;;
17812;SDS011;9030;50.792;8.320;2023-04-16T07:36:21;24.97;;;22.37;;
17812;SDS011;9030;50.792;8.320;2023-04-16T07:39:03;26.33;;;22.87;;
17812;SDS011;9030;50.792;8.320;2023-04-16T07:41:29;24.43;;;20.23;;
17812;SDS011;9030;50.792;8.320;2023-04-16T07:43:58;24.97;;;22.30;;
17812;SDS011;9030;50.792;8.320;2023-04-16T07:46:34;24.07;;;21.47;;
17812;SDS011;9030;50.792;8.320;2023-04-16T07:49:03;22.47;;;20.07;;
17812;SDS011;9030;50.792;8.320;2023-04-16T07:51:29;23.33;;;21.00;;
17812;SDS011;9030;50.792;8.320;2023-04-16T07:53:56;23.37;;;20.23;;
17812;SDS011;9030;50.792;8.320;2023-04-16T07:56:23;22.13;;;19.93;;
17812;SDS011;9030;50.792;8.320;2023-04-16T07:58:49;22.90;;;20.50;;
17812;SDS011;9030;50.792;8.320;2023-04-16T08:01:16;24.37;;;21.63;;
17812;SDS011;9030;50.792;8.320;2023-04-16T08:03:43;23.37;;;20.00;;
17812;SDS011;9030;50.792;8.320;2023-04-16T08:06:11;22.57;;;20.13;;
17812;SDS011;9030;50.792;8.320;2023-04-16T08:08:37;22.47;;;18.97;;
17812;SDS011;9030;50.792;8.320;2023-04-16T08:11:04;21.13;;;18.70;;
17812;SDS011;9030;50.792;8.320;2023-04-16T08:13:31;21.77;;;18.27;;
17812;SDS011;9030;50.792;8.320;2023-04-16T08:15:57;20.80;;;18.60;;
17812;SDS011;9030;50.792;8.320;2023-04-16T08:18:24;22.63;;;20.47;;
17812;SDS011;9030;50.792;8.320;2023-04-16T08:20:51;20.73;;;18.53;;
17812;SDS011;9030;50.792;8.320;2023-04-16T08:23:19;22.93;;;19.00;;
17812;SDS011;9030;50.792;8.320;2023-04-16T08:25:46;20.73;;;18.33;;
17812;SDS011;9030;50.792;8.320;2023-04-16T08:28:12;23.43;;;20.93;;
17812;SDS011;9030;50.792;8.320;2023-04-16T08:30:45;23.90;;;21.50;;
17812;SDS011;9030;50.792;8.320;2023-04-16T08:33:18;21.97;;;19.70;;
17812;SDS011;9030;50.792;8.320;2023-04-16T08:35:50;25.37;;;22.77;;
17812;SDS011;9030;50.792;8.320;2023-04-16T08:38:19;23.17;;;19.47;;
17812;SDS011;9030;50.792;8.320;2023-04-16T08:40:45;22.43;;;20.07;;
17812;SDS011;9030;50.792;8.320;2023-04-16T08:43:20;23.63;;;20.03;;
17812;SDS011;9030;50.792;8.320;2023-04-16T08:45:51;24.07;;;21.00;;
17812;SDS011;9030;50.792;8.320;2023-04-16T08:48:20;24.90;;;22.40;;
17812;SDS011;9030;50.792;8.320;2023-04-16T08:50:48;22.30;;;20.00;;
17812;SDS011;9030;50.792;8.320;2023-04-16T08:53:40;23.67;;;21.27;;
17812;SDS011;9030;50.792;8.320;2023-04-16T08:56:12;23.50;;;21.07;;
17812;SDS011;9030;50.792;8.320;2023-04-16T08:58:56;25.57;;;23.00;;
17812;SDS011;9030;50.792;8.320;2023-04-16T09:01:25;22.73;;;20.40;;
17812;SDS011;9030;50.792;8.320;2023-04-16T09:04:11;26.10;;;23.40;;
17812;SDS011;9030;50.792;8.320;2023-04-16T09:06:40;25.63;;;22.90;;
17812;SDS011;9030;50.792;8.320;2023-04-16T09:09:09;28.27;;;25.37;;
17812;SDS011;9030;50.792;8.320;2023-04-16T09:11:48;27.17;;;24.47;;
17812;SDS011;9030;50.792;8.320;2023-04-16T09:14:16;25.27;;;22.67;;
17812;SDS011;9030;50.792;8.320;2023-04-16T09:16:43;26.90;;;23.93;;
17812;SDS011;9030;50.792;8.320;2023-04-16T09:19:10;29.77;;;25.53;;
17812;SDS011;9030;50.792;8.320;2023-04-16T09:21:37;28.17;;;25.23;;
17812;SDS011;9030;50.792;8.320;2023-04-16T09:24:06;28.20;;;25.57;;
17812;SDS011;9030;50.792;8.320;2023-04-16T09:29:07;27.17;;;24.10;;
17812;SDS011;9030;50.792;8.320;2023-04-16T09:31:52;27.67;;;24.63;;
17812;SDS011;9030;50.792;8.320;2023-04-16T09:34:27;30.07;;;27.07;;
17812;SDS011;9030;50.792;8.320;2023-04-16T09:36:53;29.40;;;26.60;;
17812;SDS011;9030;50.792;8.320;2023-04-16T09:39:21;28.37;;;25.73;;
17812;SDS011;9030;50.792;8.320;2023-04-16T09:41:51;27.73;;;24.57;;
17812;SDS011;9030;50.792;8.320;2023-04-16T09:44:33;29.33;;;26.43;;
17812;SDS011;9030;50.792;8.320;2023-04-16T09:47:04;28.13;;;25.30;;
17812;SDS011;9030;50.792;8.320;2023-04-16T09:49:32;30.03;;;27.20;;
17812;SDS011;9030;50.792;8.320;2023-04-16T09:52:07;26.93;;;24.13;;
17812;SDS011;9030;50.792;8.320;2023-04-16T09:57:35;28.07;;;25.17;;
17812;SDS011;9030;50.792;8.320;2023-04-16T10:00:06;29.87;;;26.83;;
17812;SDS011;9030;50.792;8.320;2023-04-16T10:02:34;28.60;;;25.80;;
17812;SDS011;9030;50.792;8.320;2023-04-16T10:07:58;30.77;;;27.77;;
17812;SDS011;9030;50.792;8.320;2023-04-16T10:10:26;30.10;;;27.10;;
17812;SDS011;9030;50.792;8.320;2023-04-16T10:12:54;31.70;;;28.40;;
17812;SDS011;9030;50.792;8.320;2023-04-16T10:15:21;30.70;;;27.50;;
17812;SDS011;9030;50.792;8.320;2023-04-16T10:17:49;29.93;;;26.90;;
17812;SDS011;9030;50.792;8.320;2023-04-16T10:20:16;28.37;;;25.77;;
17812;SDS011;9030;50.792;8.320;2023-04-16T10:22:43;28.37;;;25.53;;
17812;SDS011;9030;50.792;8.320;2023-04-16T10:25:11;28.37;;;22.53;;
17812;SDS011;9030;50.792;8.320;2023-04-16T10:27:38;27.40;;;24.73;;
17812;SDS011;9030;50.792;8.320;2023-04-16T10:30:14;30.33;;;27.40;;
17812;SDS011;9030;50.792;8.320;2023-04-16T10:32:43;30.03;;;26.93;;
17812;SDS011;9030;50.792;8.320;2023-04-16T10:35:13;26.93;;;24.10;;
17812;SDS011;9030;50.792;8.320;2023-04-16T10:37:41;29.80;;;26.87;;
17812;SDS011;9030;50.792;8.320;2023-04-16T10:40:22;26.70;;;24.00;;
17812;SDS011;9030;50.792;8.320;2023-04-16T10:42:56;30.10;;;27.00;;
17812;SDS011;9030;50.792;8.320;2023-04-16T10:45:31;31.07;;;27.77;;
17812;SDS011;9030;50.792;8.320;2023-04-16T10:48:03;30.77;;;27.57;;
17812;SDS011;9030;50.792;8.320;2023-04-16T10:50:33;27.97;;;25.00;;
17812;SDS011;9030;50.792;8.320;2023-04-16T10:53:16;31.07;;;27.77;;
17812;SDS011;9030;50.792;8.320;2023-04-16T10:58:37;34.00;;;29.60;;
17812;SDS011;9030;50.792;8.320;2023-04-16T11:01:12;33.73;;;30.27;;
17812;SDS011;9030;50.792;8.320;2023-04-16T11:03:41;30.30;;;27.37;;
17812;SDS011;9030;50.792;8.320;2023-04-16T11:06:09;31.57;;;28.23;;
17812;SDS011;9030;50.792;8.320;2023-04-16T11:08:41;29.17;;;24.20;;
17812;SDS011;9030;50.792;8.320;2023-04-16T11:11:09;30.40;;;27.37;;
17812;SDS011;9030;50.792;8.320;2023-04-16T11:13:46;30.93;;;27.83;;
17812;SDS011;9030;50.792;8.320;2023-04-16T11:16:15;29.43;;;26.23;;
17812;SDS011;9030;50.792;8.320;2023-04-16T11:18:44;28.90;;;26.10;;
17812;SDS011;9030;50.792;8.320;2023-04-16T11:21:11;29.80;;;26.90;;
17812;SDS011;9030;50.792;8.320;2023-04-16T11:23:44;28.87;;;25.87;;
17812;SDS011;9030;50.792;8.320;2023-04-16T11:26:18;27.97;;;25.07;;
17812;SDS011;9030;50.792;8.320;2023-04-16T11:28:52;28.07;;;25.37;;
17812;SDS011;9030;50.792;8.320;2023-04-16T11:31:21;30.00;;;27.20;;
17812;SDS011;9030;50.792;8.320;2023-04-16T11:33:48;49.87;;;45.57;;
17812;SDS011;9030;50.792;8.320;2023-04-16T11:36:14;29.50;;;26.60;;
17812;SDS011;9030;50.792;8.320;2023-04-16T11:38:42;26.10;;;23.50;;
17812;SDS011;9030;50.792;8.320;2023-04-16T11:41:09;25.77;;;22.93;;
17812;SDS011;9030;50.792;8.320;2023-04-16T11:43:36;24.73;;;22.20;;
17812;SDS011;9030;50.792;8.320;2023-04-16T11:46:11;25.60;;;23.10;;
17812;SDS011;9030;50.792;8.320;2023-04-16T11:48:48;25.00;;;22.57;;
17812;SDS011;9030;50.792;8.320;2023-04-16T11:51:17;25.33;;;22.67;;
17812;SDS011;9030;50.792;8.320;2023-04-16T11:53:48;26.83;;;24.13;;
17812;SDS011;9030;50.792;8.320;2023-04-16T11:56:23;25.47;;;23.07;;
17812;SDS011;9030;50.792;8.320;2023-04-16T11:59:07;24.35;;;21.95;;
17812;SDS011;9030;50.792;8.320;2023-04-16T12:01:35;24.30;;;21.90;;
17812;SDS011;9030;50.792;8.320;2023-04-16T12:04:04;25.27;;;22.77;;
17812;SDS011;9030;50.792;8.320;2023-04-16T12:06:31;25.17;;;22.73;;
17812;SDS011;9030;50.792;8.320;2023-04-16T12:08:58;24.87;;;22.27;;
17812;SDS011;9030;50.792;8.320;2023-04-16T12:11:37;24.80;;;22.33;;
17812;SDS011;9030;50.792;8.320;2023-04-16T12:16:54;25.33;;;22.63;;
17812;SDS011;9030;50.792;8.320;2023-04-16T12:19:23;24.98;;;21.50;;
17812;SDS011;9030;50.792;8.320;2023-04-16T12:21:50;25.00;;;22.40;;
17812;SDS011;9030;50.792;8.320;2023-04-16T12:24:18;23.57;;;21.10;;
17812;SDS011;9030;50.792;8.320;2023-04-16T12:26:47;25.40;;;22.70;;
17812;SDS011;9030;50.792;8.320;2023-04-16T12:29:20;21.63;;;19.30;;
17812;SDS011;9030;50.792;8.320;2023-04-16T12:31:48;25.50;;;22.57;;
17812;SDS011;9030;50.792;8.320;2023-04-16T12:34:16;24.60;;;22.10;;
17812;SDS011;9030;50.792;8.320;2023-04-16T12:36:45;23.80;;;21.50;;
17812;SDS011;9030;50.792;8.320;2023-04-16T12:39:13;24.30;;;21.90;;
17812;SDS011;9030;50.792;8.320;2023-04-16T12:41:41;25.90;;;23.30;;
17812;SDS011;9030;50.792;8.320;2023-04-16T12:44:09;24.57;;;22.07;;
17812;SDS011;9030;50.792;8.320;2023-04-16T12:46:38;25.03;;;22.50;;
17812;SDS011;9030;50.792;8.320;2023-04-16T12:49:05;24.70;;;22.23;;
17812;SDS011;9030;50.792;8.320;2023-04-16T12:51:32;25.73;;;22.77;;
17812;SDS011;9030;50.792;8.320;2023-04-16T12:54:01;24.10;;;21.67;;
17812;SDS011;9030;50.792;8.320;2023-04-16T12:56:29;23.53;;;21.13;;
17812;SDS011;9030;50.792;8.320;2023-04-16T12:58:56;23.57;;;21.07;;
17812;SDS011;9030;50.792;8.320;2023-04-16T13:01:23;23.50;;;21.00;;
17812;SDS011;9030;50.792;8.320;2023-04-16T13:03:49;24.67;;;22.17;;
17812;SDS011;9030;50.792;8.320;2023-04-16T13:06:16;25.77;;;23.23;;
17812;SDS011;9030;50.792;8.320;2023-04-16T13:08:43;22.87;;;20.60;;
17812;SDS011;9030;50.792;8.320;2023-04-16T13:11:11;22.67;;;20.00;;
17812;SDS011;9030;50.792;8.320;2023-04-16T13:13:38;23.87;;;21.47;;
17812;SDS011;9030;50.792;8.320;2023-04-16T13:16:05;26.53;;;22.27;;
17812;SDS011;9030;50.792;8.320;2023-04-16T13:18:32;27.60;;;24.90;;
17812;SDS011;9030;50.792;8.320;2023-04-16T13:21:01;28.20;;;25.53;;
17812;SDS011;9030;50.792;8.320;2023-04-16T13:23:27;29.73;;;26.87;;
17812;SDS011;9030;50.792;8.320;2023-04-16T13:25:54;29.33;;;24.73;;
17812;SDS011;9030;50.792;8.320;2023-04-16T13:28:22;29.30;;;26.20;;
17812;SDS011;9030;50.792;8.320;2023-04-16T13:30:49;29.43;;;26.40;;
17812;SDS011;9030;50.792;8.320;2023-04-16T13:33:16;29.50;;;26.33;;
17812;SDS011;9030;50.792;8.320;2023-04-16T13:35:43;32.00;;;28.13;;
17812;SDS011;9030;50.792;8.320;2023-04-16T13:38:10;31.97;;;28.83;;
17812;SDS011;9030;50.792;8.320;2023-04-16T13:40:37;31.93;;;28.67;;
17812;SDS011;9030;50.792;8.320;2023-04-16T13:43:03;32.37;;;29.13;;
17812;SDS011;9030;50.792;8.320;2023-04-16T13:45:31;33.07;;;29.97;;
17812;SDS011;9030;50.792;8.320;2023-04-16T13:47:58;32.23;;;29.13;;
17812;SDS011;9030;50.792;8.320;2023-04-16T13:50:25;32.70;;;29.40;;
17812;SDS011;9030;50.792;8.320;2023-04-16T13:52:52;29.23;;;26.13;;
17812;SDS011;9030;50.792;8.320;2023-04-16T13:55:19;34.40;;;30.90;;
17812;SDS011;9030;50.792;8.320;2023-04-16T13:57:46;29.80;;;26.70;;
17812;SDS011;9030;50.792;8.320;2023-04-16T14:00:14;29.97;;;26.93;;
17812;SDS011;9030;50.792;8.320;2023-04-16T14:02:42;31.43;;;28.33;;
17812;SDS011;9030;50.792;8.320;2023-04-16T14:05:12;30.63;;;27.40;;
17812;SDS011;9030;50.792;8.320;2023-04-16T14:07:39;32.33;;;28.93;;
17812;SDS011;9030;50.792;8.320;2023-04-16T14:10:07;33.57;;;30.07;;
17812;SDS011;9030;50.792;8.320;2023-04-16T14:12:34;33.13;;;29.70;;
17812;SDS011;9030;50.792;8.320;2023-04-16T14:15:01;33.37;;;30.23;;
17812;SDS011;9030;50.792;8.320;2023-04-16T14:17:29;31.20;;;28.03;;
17812;SDS011;9030;50.792;8.320;2023-04-16T14:19:57;33.30;;;30.10;;
17812;SDS011;9030;50.792;8.320;2023-04-16T14:22:24;34.17;;;30.73;;
17812;SDS011;9030;50.792;8.320;2023-04-16T14:24:50;33.13;;;29.67;;
17812;SDS011;9030;50.792;8.320;2023-04-16T14:27:17;31.50;;;28.47;;
17812;SDS011;9030;50.792;8.320;2023-04-16T14:29:44;32.67;;;29.27;;
17812;SDS011;9030;50.792;8.320;2023-04-16T14:32:11;29.27;;;26.20;;
17812;SDS011;9030;50.792;8.320;2023-04-16T14:34:37;29.13;;;26.20;;
17812;SDS011;9030;50.792;8.320;2023-04-16T14:37:05;26.77;;;24.03;;
17812;SDS011;9030;50.792;8.320;2023-04-16T14:39:32;25.97;;;23.33;;
17812;SDS011;9030;50.792;8.320;2023-04-16T14:42:00;26.97;;;23.23;;
17812;SDS011;9030;50.792;8.320;2023-04-16T14:44:27;26.73;;;24.07;;
17812;SDS011;9030;50.792;8.320;2023-04-16T14:46:53;27.10;;;24.37;;
17812;SDS011;9030;50.792;8.320;2023-04-16T14:49:20;26.60;;;23.77;;
17812;SDS011;9030;50.792;8.320;2023-04-16T14:51:47;27.47;;;24.57;;
17812;SDS011;9030;50.792;8.320;2023-04-16T14:54:15;26.50;;;23.80;;
17812;SDS011;9030;50.792;8.320;2023-04-16T14:56:43;29.00;;;26.13;;
17812;SDS011;9030;50.792;8.320;2023-04-16T14:59:10;27.73;;;24.93;;
17812;SDS011;9030;50.792;8.320;2023-04-16T15:01:36;28.50;;;25.53;;
17812;SDS011;9030;50.792;8.320;2023-04-16T15:04:05;30.50;;;27.57;;
17812;SDS011;9030;50.792;8.320;2023-04-16T15:06:32;31.47;;;28.57;;
17812;SDS011;9030;50.792;8.320;2023-04-16T15:08:59;30.43;;;27.57;;